createdAt,value
2023-04-07T00:02:00.539Z,65.42
2023-04-07T00:05:03.485Z,65.06
2023-04-07T00:08:06.290Z,65.17
2023-04-07T00:11:09.949Z,64.85
2023-04-07T00:14:12.671Z,65.43
2023-04-07T00:17:15.750Z,65.12
2023-04-07T00:20:19.576Z,64.85
2023-04-07T00:23:22.803Z,66.46
2023-04-07T00:26:31.426Z,65.58
2023-04-07T00:29:34.305Z,64.97
2023-04-07T00:32:37.847Z,64.49
2023-04-07T00:35:40.944Z,64.82
2023-04-07T00:38:43.602Z,64.12
2023-04-07T00:41:46.933Z,63.85
2023-04-07T00:44:49.664Z,63.75
2023-04-07T00:47:52.358Z,63.06
2023-04-07T00:50:55.092Z,63.78
2023-04-07T00:53:57.616Z,63.98
2023-04-07T00:57:01.790Z,64.17
2023-04-07T01:00:06.812Z,63.83
2023-04-07T01:03:18.419Z,63.31
2023-04-07T01:06:26.892Z,63.29
2023-04-07T01:09:41.752Z,62.82
2023-04-07T01:13:23.037Z,62.75
2023-04-07T01:16:32.689Z,62.83
2023-04-07T01:20:08.426Z,63.95
2023-04-07T01:23:25.481Z,63.47
2023-04-07T01:26:33.690Z,62.72
2023-04-07T01:29:47.491Z,63.80
2023-04-07T01:32:53.192Z,63.13
2023-04-07T01:35:59.809Z,62.58
2023-04-07T01:39:03.047Z,62.64
2023-04-07T01:42:08.371Z,62.68
2023-04-07T01:45:12.372Z,62.38
2023-04-07T01:48:16.402Z,62.45
2023-04-07T01:51:21.811Z,62.73
2023-04-07T01:54:25.845Z,63.62
2023-04-07T01:57:29.242Z,62.43
2023-04-07T02:00:38.334Z,62.72
2023-04-07T02:04:02.545Z,62.65
2023-04-07T02:07:21.277Z,63.13
2023-04-07T02:10:29.653Z,62.57
2023-04-07T02:13:37.908Z,63.44
2023-04-07T02:16:42.256Z,63.11
2023-04-07T02:19:46.769Z,62.45
2023-04-07T02:22:49.750Z,62.57
2023-04-07T02:25:56.730Z,62.55
2023-04-07T02:29:01.518Z,62.85
2023-04-07T02:32:04.525Z,62.59
2023-04-07T02:35:10.184Z,62.37
2023-04-07T02:38:13.037Z,62.13
2023-04-07T02:41:16.058Z,61.17
2023-04-07T02:44:19.605Z,61.28
2023-04-07T02:47:23.074Z,61.84
2023-04-07T02:50:27.097Z,62.88
2023-04-07T02:53:32.660Z,63.28
2023-04-07T02:56:38.070Z,62.92
2023-04-07T02:59:41.720Z,62.70
2023-04-07T03:02:47.183Z,61.73
2023-04-07T03:05:51.499Z,62.89
2023-04-07T03:08:54.228Z,62.66
2023-04-07T03:11:57.090Z,62.64
2023-04-07T03:15:00.133Z,63.34
2023-04-07T03:18:02.964Z,63.92
2023-04-07T03:21:06.768Z,63.27
2023-04-07T03:24:09.773Z,63.11
2023-04-07T03:27:12.453Z,63.45
2023-04-07T03:30:20.903Z,62.52
2023-04-07T03:33:24.467Z,63.26
2023-04-07T03:36:31.858Z,62.91
2023-04-07T03:39:41.169Z,62.82
2023-04-07T03:42:57.700Z,63.27
2023-04-07T03:46:00.754Z,63.85
2023-04-07T03:49:03.543Z,63.81
2023-04-07T03:52:08.320Z,64.25
2023-04-07T03:55:11.237Z,63.89
2023-04-07T03:58:14.204Z,65.09
2023-04-07T04:01:18.572Z,65.23
2023-04-07T04:04:24.782Z,65.31
2023-04-07T04:07:28.182Z,64.80
2023-04-07T04:10:37.161Z,64.19
2023-04-07T04:13:39.892Z,64.86
2023-04-07T04:16:43.218Z,64.48
2023-04-07T04:20:00.106Z,65.60
2023-04-07T04:23:18.459Z,64.79
2023-04-07T04:26:26.017Z,64.04
2023-04-07T04:29:33.048Z,63.99
2023-04-07T04:32:38.360Z,63.70
2023-04-07T04:35:42.635Z,63.64
2023-04-07T04:38:48.755Z,63.69
2023-04-07T04:41:56.724Z,64.91
2023-04-07T04:45:07.294Z,65.36
2023-04-07T04:48:11.567Z,64.87
2023-04-07T04:51:14.339Z,65.92
2023-04-07T04:54:19.690Z,65.48
2023-04-07T04:57:23.032Z,64.55
2023-04-07T05:00:26.713Z,64.92
2023-04-07T05:03:35.522Z,64.49
2023-04-07T05:06:46.304Z,63.53
2023-04-07T05:09:52.016Z,63.59
2023-04-07T05:12:57.749Z,63.83
2023-04-07T05:16:01.276Z,64.03
2023-04-07T05:19:04.378Z,63.67
2023-04-07T05:22:07.804Z,63.55
2023-04-07T05:25:18.818Z,62.72
2023-04-07T05:28:24.663Z,62.26
2023-04-07T05:31:29.594Z,62.05
2023-04-07T05:34:35.195Z,63.46
2023-04-07T05:37:39.277Z,62.92
2023-04-07T05:40:43.104Z,62.51
2023-04-07T05:43:51.367Z,62.66
2023-04-07T05:46:55.530Z,62.58
2023-04-07T05:50:01.247Z,63.25
2023-04-07T05:53:04.817Z,63.04
2023-04-07T05:56:08.335Z,63.65
2023-04-07T05:59:23.282Z,63.53
2023-04-07T06:02:28.419Z,62.65
2023-04-07T06:05:32.040Z,62.30
2023-04-07T06:08:34.972Z,63.34
2023-04-07T06:11:37.731Z,63.13
2023-04-07T06:14:40.650Z,62.96
2023-04-07T06:17:48.806Z,62.30
2023-04-07T06:20:53.880Z,62.68
2023-04-07T06:23:56.677Z,63.09
2023-04-07T06:27:03.778Z,63.64
2023-04-07T06:30:07.266Z,62.64
2023-04-07T06:33:12.252Z,62.45
2023-04-07T06:36:16.619Z,63.58
2023-04-07T06:39:20.431Z,64.37
2023-04-07T06:42:23.279Z,61.62
2023-04-07T06:45:36.436Z,61.78
2023-04-07T06:48:39.013Z,65.47
2023-04-07T06:51:41.626Z,64.60
2023-04-07T06:54:44.861Z,64.90
2023-04-07T06:57:47.499Z,64.04
2023-04-07T07:00:50.472Z,64.49
2023-04-07T07:03:53.325Z,64.63
2023-04-07T07:06:56.205Z,64.40
2023-04-07T07:09:58.846Z,66.55
2023-04-07T07:13:02.244Z,67.27
2023-04-07T07:16:06.115Z,66.16
2023-04-07T07:19:09.628Z,67.26
2023-04-07T07:22:12.485Z,67.42
2023-04-07T07:25:15.144Z,65.91
2023-04-07T07:28:18.623Z,66.16
2023-04-07T07:31:21.837Z,67.26
2023-04-07T07:34:24.489Z,66.12
2023-04-07T07:37:28.061Z,66.97
2023-04-07T07:40:30.712Z,67.85
2023-04-07T07:43:33.492Z,67.54
2023-04-07T07:46:36.124Z,67.14
2023-04-07T07:49:38.968Z,67.63
2023-04-07T07:52:41.862Z,66.95
2023-04-07T07:55:46.157Z,64.64
2023-04-07T07:58:48.801Z,66.66
2023-04-07T08:01:51.593Z,64.96
2023-04-07T08:04:55.436Z,64.53
2023-04-07T08:07:58.201Z,64.96
2023-04-07T08:11:01.191Z,66.39
2023-04-07T08:14:03.984Z,64.88
2023-04-07T08:17:07.005Z,64.89
2023-04-07T08:20:11.861Z,64.67
2023-04-07T08:23:16.311Z,65.85
2023-04-07T08:26:18.949Z,65.29
2023-04-07T08:29:22.459Z,65.84
2023-04-07T08:32:25.141Z,62.92
2023-04-07T08:35:28.418Z,62.50
2023-04-07T08:38:31.514Z,62.03
2023-04-07T08:41:40.986Z,62.52
2023-04-07T08:44:45.115Z,61.66
2023-04-07T08:47:52.798Z,62.29
2023-04-07T08:50:57.447Z,62.18
2023-04-07T08:54:09.581Z,62.32
2023-04-07T08:57:13.425Z,62.18
2023-04-07T09:00:17.079Z,61.85
2023-04-07T09:03:21.237Z,60.20
2023-04-07T09:06:24.781Z,61.02
2023-04-07T09:09:27.653Z,60.94
2023-04-07T09:12:31.820Z,60.27
2023-04-07T09:15:36.768Z,59.87
2023-04-07T09:18:42.475Z,59.85
2023-04-07T09:21:50.506Z,58.23
2023-04-07T09:24:53.080Z,58.08
2023-04-07T09:28:00.178Z,58.34
2023-04-07T09:31:02.862Z,59.02
2023-04-07T09:34:25.039Z,58.92
2023-04-07T09:37:28.261Z,57.76
2023-04-07T09:40:32.794Z,58.63
2023-04-07T09:43:38.188Z,58.11
2023-04-07T09:46:54.130Z,60.15
2023-04-07T09:49:58.916Z,61.51
2023-04-07T09:53:03.698Z,61.40
2023-04-07T09:56:06.707Z,60.64
2023-04-07T09:59:10.738Z,61.55
2023-04-07T10:02:13.508Z,60.00
2023-04-07T10:05:17.774Z,59.81
2023-04-07T10:08:21.265Z,60.58
2023-04-07T10:11:23.938Z,59.49
2023-04-07T10:14:31.192Z,58.13
2023-04-07T10:17:36.766Z,56.72
2023-04-07T10:20:43.813Z,57.42
2023-04-07T10:23:59.955Z,57.26
2023-04-07T10:27:09.302Z,57.08
2023-04-07T10:30:18.742Z,56.72
2023-04-07T10:33:57.683Z,57.00
2023-04-07T10:37:16.964Z,57.21
2023-04-07T10:40:21.592Z,57.59
2023-04-07T10:43:42.183Z,55.42
2023-04-07T10:46:48.420Z,55.21
2023-04-07T10:50:15.723Z,58.11
2023-04-07T10:53:18.627Z,57.69
2023-04-07T10:56:21.682Z,56.48
2023-04-07T10:59:27.831Z,57.19
2023-04-07T11:02:32.718Z,56.42
2023-04-07T11:05:38.891Z,55.96
2023-04-07T11:08:43.317Z,56.59
2023-04-07T11:11:48.746Z,57.69
2023-04-07T11:14:53.878Z,57.75
2023-04-07T11:18:17.286Z,55.10
2023-04-07T11:21:20.567Z,53.77
2023-04-07T11:24:52.332Z,53.82
2023-04-07T11:27:54.976Z,55.54
2023-04-07T11:31:00.330Z,56.30
2023-04-07T11:34:05.339Z,56.19
2023-04-07T11:37:25.485Z,55.49
2023-04-07T11:40:37.255Z,55.54
2023-04-07T11:43:42.188Z,53.46
2023-04-07T11:46:58.602Z,54.30
2023-04-07T11:50:01.462Z,53.57
2023-04-07T11:53:04.704Z,55.00
2023-04-07T11:56:12.596Z,55.08
2023-04-07T11:59:26.982Z,55.33
2023-04-07T12:02:32.592Z,56.12
2023-04-07T12:05:45.449Z,57.04
2023-04-07T12:08:48.208Z,57.34
2023-04-07T12:11:50.916Z,57.90
2023-04-07T12:14:53.614Z,56.47
2023-04-07T12:17:56.230Z,54.94
2023-04-07T12:20:59.205Z,55.45
2023-04-07T12:24:02.472Z,55.56
2023-04-07T12:27:05.285Z,55.96
2023-04-07T12:30:08.646Z,57.33
2023-04-07T12:33:11.688Z,58.19
2023-04-07T12:36:14.514Z,58.95
2023-04-07T12:39:17.356Z,56.50
2023-04-07T12:42:20.211Z,57.64
2023-04-07T12:45:22.875Z,55.69
2023-04-07T12:48:27.557Z,57.02
2023-04-07T12:51:33.485Z,55.71
2023-04-07T12:54:36.044Z,56.65
2023-04-07T12:57:38.987Z,54.79
2023-04-07T13:00:42.613Z,54.96
2023-04-07T13:03:45.602Z,55.29
2023-04-07T13:06:48.199Z,55.39
2023-04-07T13:09:51.871Z,56.27
2023-04-07T13:12:55.368Z,55.45
2023-04-07T13:15:58.103Z,54.74
2023-04-07T13:19:00.774Z,55.66
2023-04-07T13:22:06.218Z,57.16
2023-04-07T13:25:09.837Z,56.93
2023-04-07T13:28:12.537Z,57.10
2023-04-07T13:31:16.335Z,56.60
2023-04-07T13:34:20.838Z,55.85
2023-04-07T13:37:23.552Z,56.64
2023-04-07T13:40:31.175Z,56.05
2023-04-07T13:43:33.685Z,57.63
2023-04-07T13:46:36.913Z,56.77
2023-04-07T13:49:40.414Z,56.25
2023-04-07T13:52:43.865Z,55.85
2023-04-07T13:55:47.508Z,56.38
2023-04-07T13:58:50.636Z,56.48
2023-04-07T14:01:53.763Z,56.28
2023-04-07T14:04:57.388Z,57.21
2023-04-07T14:07:59.996Z,57.69
2023-04-07T14:11:03.653Z,56.92
2023-04-07T14:14:06.703Z,56.12
2023-04-07T14:17:09.258Z,56.80
2023-04-07T14:20:12.917Z,57.34
2023-04-07T14:23:20.758Z,57.28
2023-04-07T14:26:33.847Z,56.80
2023-04-07T14:29:36.674Z,56.19
2023-04-07T14:32:39.933Z,56.42
2023-04-07T14:35:42.972Z,55.69
2023-04-07T14:38:45.604Z,56.42
2023-04-07T14:41:48.965Z,56.27
2023-04-07T14:44:51.491Z,56.60
2023-04-07T14:47:54.164Z,56.13
2023-04-07T14:51:08.168Z,57.44
2023-04-07T14:54:12.884Z,57.13
2023-04-07T14:57:17.202Z,57.37
2023-04-07T15:00:20.403Z,56.44
2023-04-07T15:03:23.179Z,57.38
2023-04-07T15:06:30.095Z,57.17
2023-04-07T15:09:32.796Z,57.39
2023-04-07T15:12:35.404Z,58.13
2023-04-07T15:15:38.874Z,57.54
2023-04-07T15:18:44.535Z,57.61
2023-04-07T15:21:47.298Z,57.55
2023-04-07T15:24:49.962Z,57.43
2023-04-07T15:27:52.742Z,57.82
2023-04-07T15:30:55.769Z,58.36
2023-04-07T15:33:58.891Z,57.58
2023-04-07T15:37:03.575Z,58.68
2023-04-07T15:40:07.587Z,58.01
2023-04-07T15:43:11.496Z,58.71
2023-04-07T15:46:15.467Z,59.81
2023-04-07T15:49:20.104Z,59.40
2023-04-07T15:52:24.162Z,59.58
2023-04-07T15:55:26.907Z,59.42
2023-04-07T15:58:31.080Z,59.22
2023-04-07T16:01:34.575Z,60.19
2023-04-07T16:04:37.428Z,60.21
2023-04-07T16:07:41.014Z,60.85
2023-04-07T16:10:43.973Z,60.51
2023-04-07T16:13:47.139Z,61.00
2023-04-07T16:16:53.741Z,60.82
2023-04-07T16:19:56.469Z,61.38
2023-04-07T16:22:59.094Z,61.22
2023-04-07T16:26:01.883Z,61.48
2023-04-07T16:29:04.823Z,61.46
2023-04-07T16:32:07.669Z,62.04
2023-04-07T16:35:11.789Z,62.40
2023-04-07T16:38:14.649Z,62.27
2023-04-07T16:41:17.212Z,63.19
2023-04-07T16:44:22.150Z,63.55
2023-04-07T16:47:28.631Z,64.19
2023-04-07T16:50:31.390Z,64.46
2023-04-07T16:53:34.042Z,64.58
2023-04-07T16:56:37.542Z,63.76
2023-04-07T16:59:41.083Z,64.15
2023-04-07T17:02:44.650Z,64.45
2023-04-07T17:05:48.393Z,64.75
2023-04-07T17:08:51.045Z,64.92
2023-04-07T17:11:53.689Z,65.37
2023-04-07T17:14:56.390Z,65.52
2023-04-07T17:17:59.846Z,65.50
2023-04-07T17:21:02.676Z,65.98
2023-04-07T17:24:06.792Z,65.88
2023-04-07T17:27:09.491Z,66.81
2023-04-07T17:30:13.359Z,66.49
2023-04-07T17:33:16.536Z,66.76
2023-04-07T17:36:19.507Z,67.06
2023-04-07T17:39:22.343Z,67.41
2023-04-07T17:42:24.935Z,67.34
2023-04-07T17:45:27.851Z,67.88
2023-04-07T17:48:33.500Z,68.09
2023-04-07T17:51:36.464Z,68.54
2023-04-07T17:54:39.288Z,69.11
2023-04-07T17:57:42.121Z,68.42
2023-04-07T18:00:45.093Z,69.54
2023-04-07T18:03:48.574Z,69.34
2023-04-07T18:06:51.586Z,69.53
2023-04-07T18:09:54.494Z,70.18
2023-04-07T18:12:58.584Z,69.44
2023-04-07T18:16:01.228Z,70.21
2023-04-07T18:19:03.891Z,69.89
2023-04-07T18:22:06.653Z,70.78
2023-04-07T18:25:10.096Z,69.76
2023-04-07T18:28:12.736Z,70.66
2023-04-07T18:31:15.901Z,70.15
2023-04-07T18:34:18.444Z,71.26
2023-04-07T18:37:22.270Z,71.01
2023-04-07T18:40:25.088Z,71.26
2023-04-07T18:43:28.037Z,70.46
2023-04-07T18:46:31.157Z,71.27
2023-04-07T18:49:34.889Z,70.90
2023-04-07T18:52:37.781Z,70.33
2023-04-07T18:55:40.495Z,70.15
2023-04-07T18:58:45.970Z,70.58
2023-04-07T19:01:48.724Z,70.47
2023-04-07T19:04:51.456Z,71.19
2023-04-07T19:07:54.164Z,71.49
2023-04-07T19:10:56.991Z,72.34
2023-04-07T19:14:00.004Z,72.38
2023-04-07T19:17:03.587Z,72.19
2023-04-07T19:20:07.373Z,71.50
2023-04-07T19:23:10.007Z,71.99
2023-04-07T19:26:14.198Z,72.46
2023-04-07T19:29:17.461Z,72.23
2023-04-07T19:32:20.578Z,72.53
2023-04-07T19:35:23.312Z,73.95
2023-04-07T19:38:26.097Z,73.66
2023-04-07T19:41:29.450Z,74.01
2023-04-07T19:44:32.010Z,73.11
2023-04-07T19:47:35.972Z,74.26
2023-04-07T19:50:43.589Z,74.30
2023-04-07T19:53:46.998Z,73.86
2023-04-07T19:56:50.793Z,74.06
2023-04-07T19:59:53.523Z,73.95
2023-04-07T20:02:56.958Z,73.98
2023-04-07T20:05:59.778Z,73.98
2023-04-07T20:09:02.670Z,74.20
2023-04-07T20:12:06.235Z,74.23
2023-04-07T20:15:09.357Z,74.26
2023-04-07T20:18:12.845Z,74.80
2023-04-07T20:21:16.421Z,76.17
2023-04-07T20:24:19.634Z,75.86
2023-04-07T20:27:22.114Z,75.89
2023-04-07T20:30:27.048Z,75.81
2023-04-07T20:33:30.434Z,76.21
2023-04-07T20:36:33.659Z,76.21
2023-04-07T20:39:37.719Z,76.76
2023-04-07T20:42:41.302Z,76.50
2023-04-07T20:45:46.163Z,76.47
2023-04-07T20:48:50.071Z,77.04
2023-04-07T20:51:53.654Z,76.58
2023-04-07T20:54:56.769Z,76.60
2023-04-07T20:58:00.520Z,76.45
2023-04-07T21:01:03.165Z,76.56
2023-04-07T21:04:06.526Z,76.58
2023-04-07T21:07:10.524Z,76.81
2023-04-07T21:10:14.625Z,76.47
2023-04-07T21:13:18.901Z,76.02
2023-04-07T21:16:21.848Z,75.21
2023-04-07T21:19:25.331Z,76.07
2023-04-07T21:22:29.662Z,76.81
2023-04-07T21:25:32.345Z,76.01
2023-04-07T21:28:35.934Z,75.54
2023-04-07T21:31:39.403Z,75.13
2023-04-07T21:34:42.204Z,74.98
2023-04-07T21:37:46.211Z,74.55
2023-04-07T21:40:49.262Z,75.08
2023-04-07T21:43:52.239Z,75.48
2023-04-07T21:46:54.939Z,75.90
2023-04-07T21:49:58.000Z,76.30
2023-04-07T21:53:00.683Z,75.57
2023-04-07T21:56:04.472Z,75.00
2023-04-07T21:59:07.330Z,75.74
2023-04-07T22:02:12.905Z,75.72
2023-04-07T22:05:17.583Z,75.80
2023-04-07T22:08:20.558Z,75.76
2023-04-07T22:11:23.664Z,75.55
2023-04-07T22:14:26.923Z,75.84
2023-04-07T22:17:29.628Z,76.10
2023-04-07T22:20:34.513Z,76.25
2023-04-07T22:23:37.823Z,76.27
2023-04-07T22:26:40.515Z,76.30
2023-04-07T22:29:43.841Z,76.86
2023-04-07T22:32:48.030Z,76.72
2023-04-07T22:35:50.887Z,75.89
2023-04-07T22:38:54.383Z,77.50
2023-04-07T22:41:57.412Z,77.04
2023-04-07T22:45:01.038Z,76.92
2023-04-07T22:48:04.497Z,76.36
2023-04-07T22:51:07.638Z,76.60
2023-04-07T22:54:10.151Z,75.89
2023-04-07T22:57:13.337Z,76.36
2023-04-07T23:00:18.024Z,76.71
2023-04-07T23:03:21.126Z,75.98
2023-04-07T23:06:23.928Z,75.21
2023-04-07T23:09:27.662Z,75.19
2023-04-07T23:12:30.268Z,75.82
2023-04-07T23:15:35.864Z,75.74
2023-04-07T23:18:38.524Z,75.66
2023-04-07T23:21:41.575Z,76.73
2023-04-07T23:24:44.070Z,77.28
2023-04-07T23:27:47.360Z,76.51
2023-04-07T23:30:54.274Z,76.13
2023-04-07T23:33:59.147Z,76.20
2023-04-07T23:37:02.273Z,76.09
2023-04-07T23:40:06.633Z,74.92
2023-04-07T23:43:10.909Z,75.70
2023-04-07T23:46:14.477Z,76.06
2023-04-07T23:49:17.224Z,75.61
2023-04-07T23:52:21.953Z,75.36
2023-04-07T23:55:24.700Z,75.14
2023-04-07T23:58:28.098Z,75.08
